createdAt,value
2022-10-10T00:00:19.037Z,2.22
2022-10-10T00:05:20.861Z,2.08
2022-10-10T00:10:22.722Z,1.85
2022-10-10T00:15:24.645Z,1.73
2022-10-10T00:20:26.620Z,2.00
2022-10-10T00:25:28.822Z,2.00
2022-10-10T00:30:31.380Z,1.85
2022-10-10T00:35:33.078Z,1.80
2022-10-10T00:40:35.189Z,2.63
2022-10-10T00:45:40.606Z,1.98
2022-10-10T00:51:11.446Z,1.80
2022-10-10T00:56:16.287Z,2.20
2022-10-10T01:01:19.316Z,1.90
2022-10-10T01:06:21.023Z,1.95
2022-10-10T01:11:38.118Z,2.00
2022-10-10T01:16:49.005Z,1.80
2022-10-10T01:22:28.265Z,1.92
2022-10-10T01:27:38.531Z,2.10
2022-10-10T01:33:08.849Z,1.80
2022-10-10T01:38:31.622Z,1.95
2022-10-10T01:43:35.295Z,1.73
2022-10-10T01:48:39.693Z,2.00
2022-10-10T01:54:14.800Z,1.88
2022-10-10T01:59:22.520Z,1.60
2022-10-10T02:04:49.175Z,1.80
2022-10-10T02:09:52.569Z,1.90
2022-10-10T02:14:58.736Z,1.65
2022-10-10T02:20:00.657Z,1.60
2022-10-10T02:25:02.712Z,1.58
2022-10-10T02:30:06.085Z,1.63
2022-10-10T02:35:14.086Z,1.70
2022-10-10T02:40:20.766Z,1.98
2022-10-10T02:45:23.604Z,2.00
2022-10-10T02:50:26.431Z,2.00
2022-10-10T02:55:28.125Z,1.85
2022-10-10T03:00:30.350Z,1.80
2022-10-10T03:05:32.355Z,2.10
2022-10-10T03:10:34.902Z,2.20
2022-10-10T03:15:37.746Z,1.70
2022-10-10T03:20:39.403Z,1.70
2022-10-10T03:25:45.300Z,2.00
2022-10-10T03:30:48.166Z,1.67
2022-10-10T03:35:50.262Z,2.13
2022-10-10T03:40:52.421Z,1.70
2022-10-10T03:45:54.218Z,2.25
2022-10-10T03:50:55.865Z,2.20
2022-10-10T03:55:57.520Z,2.00
2022-10-10T04:01:02.258Z,2.38
2022-10-10T04:06:04.099Z,2.63
2022-10-10T04:11:05.836Z,2.15
2022-10-10T04:16:07.676Z,2.13
2022-10-10T04:21:09.952Z,4.00
2022-10-10T04:26:11.622Z,3.75
2022-10-10T04:31:13.503Z,3.80
2022-10-10T04:36:15.159Z,3.58
2022-10-10T04:41:16.878Z,3.40
2022-10-10T04:46:18.502Z,5.93
2022-10-10T04:51:20.196Z,7.50
2022-10-10T04:56:21.812Z,7.97
2022-10-10T05:01:23.872Z,9.57
2022-10-10T05:06:25.614Z,12.65
2022-10-10T05:11:28.342Z,11.57
2022-10-10T05:16:30.632Z,4.78
2022-10-10T05:21:32.299Z,3.10
2022-10-10T05:26:42.241Z,2.72
2022-10-10T05:31:45.357Z,3.00
2022-10-10T05:36:47.289Z,2.65
2022-10-10T05:41:51.123Z,2.40
2022-10-10T05:46:53.224Z,2.85
2022-10-10T05:51:54.932Z,5.25
2022-10-10T05:56:56.787Z,6.60
2022-10-10T06:01:58.443Z,2.50
2022-10-10T06:07:00.096Z,2.83
2022-10-10T06:12:01.833Z,2.65
2022-10-10T06:17:03.473Z,2.70
2022-10-10T06:22:05.416Z,2.53
2022-10-10T06:27:07.063Z,2.42
2022-10-10T06:32:08.904Z,2.58
2022-10-10T06:37:12.343Z,2.90
2022-10-10T06:42:13.976Z,2.40
2022-10-10T06:47:16.280Z,2.60
2022-10-10T06:52:17.982Z,2.67
2022-10-10T06:57:19.666Z,2.58
2022-10-10T07:02:21.421Z,2.85
2022-10-10T07:07:25.233Z,2.55
2022-10-10T07:12:31.609Z,2.45
2022-10-10T07:17:35.953Z,2.70
2022-10-10T07:22:38.231Z,3.00
2022-10-10T07:27:40.079Z,2.92
2022-10-10T07:32:41.960Z,3.50
2022-10-10T07:37:43.624Z,3.20
2022-10-10T07:42:45.397Z,3.60
2022-10-10T07:47:47.189Z,3.22
2022-10-10T07:52:49.054Z,2.80
2022-10-10T07:57:53.385Z,2.85
2022-10-10T08:02:55.554Z,2.90
2022-10-10T08:07:57.373Z,3.08
2022-10-10T08:12:59.184Z,2.92
2022-10-10T08:18:00.838Z,3.75
2022-10-10T08:23:02.526Z,3.17
2022-10-10T08:28:04.952Z,3.58
2022-10-10T08:33:06.791Z,4.68
2022-10-10T08:38:09.009Z,6.70
2022-10-10T08:43:21.773Z,6.85
2022-10-10T08:48:28.627Z,6.13
2022-10-10T08:53:41.598Z,7.22
2022-10-10T08:58:47.526Z,7.20
2022-10-10T09:03:57.438Z,7.35
2022-10-10T09:09:37.123Z,7.38
2022-10-10T09:14:49.027Z,8.05
2022-10-10T09:20:04.140Z,7.60
2022-10-10T09:25:15.783Z,8.15
2022-10-10T09:30:20.195Z,7.82
2022-10-10T09:35:25.417Z,7.80
2022-10-10T09:40:34.497Z,7.00
2022-10-10T09:45:43.535Z,7.32
2022-10-10T09:50:47.616Z,7.28
2022-10-10T09:55:50.871Z,7.53
2022-10-10T10:00:53.918Z,7.45
2022-10-10T10:06:02.419Z,7.53
2022-10-10T10:11:05.112Z,7.15
2022-10-10T10:16:12.880Z,6.45
2022-10-10T10:21:26.466Z,5.93
2022-10-10T10:26:47.778Z,6.35
2022-10-10T10:32:13.940Z,5.90
2022-10-10T10:37:47.204Z,5.85
2022-10-10T10:43:02.724Z,5.00
2022-10-10T10:48:26.643Z,4.70
2022-10-10T10:53:54.668Z,4.50
2022-10-10T10:59:30.377Z,4.50
2022-10-10T11:05:25.051Z,4.77
2022-10-10T11:10:19.675Z,5.82
2022-10-10T11:15:30.808Z,6.40
2022-10-10T11:20:51.828Z,6.00
2022-10-10T11:26:20.474Z,5.95
2022-10-10T11:31:36.961Z,6.20
2022-10-10T11:36:42.061Z,7.30
2022-10-10T11:41:59.176Z,6.63
2022-10-10T11:47:22.063Z,6.90
2022-10-10T11:52:39.540Z,6.70
2022-10-10T11:57:54.138Z,6.90
2022-10-10T12:02:57.367Z,7.07
2022-10-10T12:08:07.318Z,5.22
2022-10-10T12:13:27.354Z,4.80
2022-10-10T12:18:44.844Z,4.88
2022-10-10T12:23:49.345Z,5.17
2022-10-10T12:29:01.960Z,5.97
2022-10-10T12:34:13.947Z,4.15
2022-10-10T12:39:22.319Z,3.47
2022-10-10T12:44:45.925Z,3.28
2022-10-10T12:50:05.514Z,3.45
2022-10-10T12:55:21.273Z,3.58
2022-10-10T13:00:24.519Z,3.75
2022-10-10T13:05:31.864Z,3.85
2022-10-10T13:10:33.584Z,3.83
2022-10-10T13:15:36.319Z,3.72
2022-10-10T13:20:40.503Z,3.67
2022-10-10T13:25:45.778Z,4.00
2022-10-10T13:30:51.347Z,4.80
2022-10-10T13:36:03.675Z,4.50
2022-10-10T13:41:06.228Z,5.00
2022-10-10T13:46:22.320Z,5.20
2022-10-10T13:51:45.516Z,4.93
2022-10-10T13:56:47.217Z,4.90
2022-10-10T14:01:58.712Z,5.00
2022-10-10T14:07:06.155Z,5.90
2022-10-10T14:12:16.991Z,6.50
2022-10-10T14:17:18.988Z,7.40
2022-10-10T14:22:22.003Z,8.55
2022-10-10T14:27:26.356Z,8.43
2022-10-10T14:32:28.093Z,8.27
2022-10-10T14:37:30.958Z,8.63
2022-10-10T14:42:35.599Z,8.57
2022-10-10T14:47:37.238Z,9.63
2022-10-10T14:52:38.932Z,8.40
2022-10-10T14:57:42.830Z,8.10
2022-10-10T15:02:45.904Z,8.35
2022-10-10T15:07:50.532Z,7.72
2022-10-10T15:12:52.763Z,8.57
2022-10-10T15:17:57.462Z,10.10
2022-10-10T15:23:01.657Z,8.18
2022-10-10T15:28:04.812Z,8.95
2022-10-10T15:33:06.477Z,7.72
2022-10-10T15:38:08.064Z,15.70
2022-10-10T15:43:09.692Z,9.90
2022-10-10T15:48:11.379Z,9.27
2022-10-10T15:53:13.018Z,9.85
2022-10-10T15:58:16.094Z,8.35
2022-10-10T16:03:17.758Z,10.25
2022-10-10T16:08:19.453Z,14.38
2022-10-10T16:13:21.119Z,10.10
2022-10-10T16:18:23.151Z,10.25
2022-10-10T16:23:25.977Z,11.30
2022-10-10T16:28:27.721Z,9.20
2022-10-10T16:33:32.878Z,9.48
2022-10-10T16:38:34.680Z,9.73
2022-10-10T16:43:37.679Z,7.90
2022-10-10T16:48:41.403Z,9.18
2022-10-10T16:53:43.962Z,9.38
2022-10-10T16:58:45.946Z,7.57
2022-10-10T17:03:49.419Z,6.72
2022-10-10T17:08:56.090Z,6.28
2022-10-10T17:13:58.462Z,5.85
2022-10-10T17:19:01.323Z,6.22
2022-10-10T17:24:03.297Z,7.22
2022-10-10T17:29:04.849Z,6.88
2022-10-10T17:34:09.160Z,7.22
2022-10-10T17:39:10.981Z,6.95
2022-10-10T17:44:13.498Z,7.40
2022-10-10T17:49:15.200Z,7.57
2022-10-10T17:54:16.872Z,7.20
2022-10-10T17:59:18.718Z,8.77
2022-10-10T18:04:20.396Z,28.10
2022-10-10T18:09:22.037Z,24.08
2022-10-10T18:14:24.141Z,20.67
2022-10-10T18:19:27.029Z,21.70
2022-10-10T18:24:29.171Z,23.70
2022-10-10T18:29:31.021Z,68.93
2022-10-10T18:34:32.807Z,32.35
2022-10-10T18:39:36.028Z,18.05
2022-10-10T18:44:38.593Z,15.65
2022-10-10T18:49:40.404Z,13.93
2022-10-10T18:54:42.219Z,10.52
2022-10-10T18:59:43.880Z,8.35
2022-10-10T19:04:48.044Z,7.72
2022-10-10T19:09:49.821Z,7.78
2022-10-10T19:14:51.892Z,7.85
2022-10-10T19:19:53.540Z,6.85
2022-10-10T19:24:58.818Z,7.15
2022-10-10T19:30:00.518Z,6.50
2022-10-10T19:35:02.409Z,6.88
2022-10-10T19:40:04.551Z,6.72
2022-10-10T19:45:06.878Z,6.53
2022-10-10T19:50:08.981Z,6.22
2022-10-10T19:55:10.835Z,6.30
2022-10-10T20:00:15.679Z,6.32
2022-10-10T20:05:17.655Z,6.10
2022-10-10T20:10:21.876Z,6.68
2022-10-10T20:15:23.933Z,6.43
2022-10-10T20:20:26.675Z,7.03
2022-10-10T20:25:28.371Z,6.50
2022-10-10T20:30:30.011Z,14.98
2022-10-10T20:35:34.332Z,8.45
2022-10-10T20:40:38.814Z,7.30
2022-10-10T20:45:42.729Z,9.50
2022-10-10T20:50:44.341Z,13.35
2022-10-10T20:55:46.074Z,13.13
2022-10-10T21:00:47.804Z,9.27
2022-10-10T21:05:49.581Z,7.97
2022-10-10T21:10:51.204Z,8.23
2022-10-10T21:15:52.982Z,9.52
2022-10-10T21:20:59.956Z,13.02
2022-10-10T21:26:07.184Z,8.25
2022-10-10T21:31:14.762Z,10.17
2022-10-10T21:36:18.195Z,8.43
2022-10-10T21:41:21.232Z,8.43
2022-10-10T21:46:25.468Z,8.43
2022-10-10T21:51:27.182Z,11.82
2022-10-10T21:56:28.778Z,10.30
2022-10-10T22:01:33.195Z,13.02
2022-10-10T22:06:35.130Z,12.15
2022-10-10T22:11:36.936Z,10.30
2022-10-10T22:16:38.606Z,9.27
2022-10-10T22:21:40.280Z,8.77
2022-10-10T22:26:42.385Z,12.13
2022-10-10T22:31:44.068Z,14.13
2022-10-10T22:36:46.719Z,10.05
2022-10-10T22:41:48.313Z,9.32
2022-10-10T22:46:51.712Z,9.95
2022-10-10T22:51:53.348Z,9.20
2022-10-10T22:56:55.278Z,10.98
2022-10-10T23:01:56.855Z,10.00
2022-10-10T23:06:58.983Z,7.93
2022-10-10T23:12:00.604Z,7.93
2022-10-10T23:17:02.199Z,8.25
2022-10-10T23:22:05.235Z,8.68
2022-10-10T23:27:07.408Z,8.07
2022-10-10T23:32:09.088Z,7.50
2022-10-10T23:37:10.707Z,7.63
2022-10-10T23:42:12.335Z,8.38
2022-10-10T23:47:13.935Z,7.28
2022-10-10T23:52:15.911Z,7.03
2022-10-10T23:57:17.584Z,6.65
